sensor_id;sensor_type;location;lat;lon;timestamp;P1;durP1;ratioP1;P2;durP2;ratioP2
39956;SDS011;48483;44.640;7.494;2023-09-19T00:01:39;7.05;;;3.30;;
39956;SDS011;48483;44.640;7.494;2023-09-19T00:04:08;5.65;;;3.33;;
39956;SDS011;48483;44.640;7.494;2023-09-19T00:06:35;8.00;;;3.20;;
39956;SDS011;48483;44.640;7.494;2023-09-19T00:09:02;6.47;;;2.83;;
39956;SDS011;48483;44.640;7.494;2023-09-19T00:11:29;5.78;;;2.80;;
39956;SDS011;48483;44.640;7.494;2023-09-19T00:13:57;6.75;;;2.88;;
39956;SDS011;48483;44.640;7.494;2023-09-19T00:16:26;7.93;;;3.10;;
39956;SDS011;48483;44.640;7.494;2023-09-19T00:18:53;6.35;;;2.95;;
39956;SDS011;48483;44.640;7.494;2023-09-19T00:21:22;6.47;;;2.47;;
39956;SDS011;48483;44.640;7.494;2023-09-19T00:23:49;4.80;;;2.60;;
39956;SDS011;48483;44.640;7.494;2023-09-19T00:26:17;5.50;;;2.78;;
39956;SDS011;48483;44.640;7.494;2023-09-19T00:28:47;6.70;;;2.97;;
39956;SDS011;48483;44.640;7.494;2023-09-19T00:31:14;6.63;;;3.08;;
39956;SDS011;48483;44.640;7.494;2023-09-19T00:33:41;7.55;;;3.75;;
39956;SDS011;48483;44.640;7.494;2023-09-19T00:36:08;9.43;;;4.20;;
39956;SDS011;48483;44.640;7.494;2023-09-19T00:38:36;9.07;;;3.88;;
39956;SDS011;48483;44.640;7.494;2023-09-19T00:41:03;8.57;;;3.55;;
39956;SDS011;48483;44.640;7.494;2023-09-19T00:43:30;8.68;;;3.78;;
39956;SDS011;48483;44.640;7.494;2023-09-19T00:46:00;7.07;;;3.13;;
39956;SDS011;48483;44.640;7.494;2023-09-19T00:48:29;8.10;;;3.10;;
39956;SDS011;48483;44.640;7.494;2023-09-19T00:50:57;7.80;;;3.55;;
39956;SDS011;48483;44.640;7.494;2023-09-19T00:53:28;4.97;;;3.15;;
39956;SDS011;48483;44.640;7.494;2023-09-19T00:55:58;8.75;;;3.25;;
39956;SDS011;48483;44.640;7.494;2023-09-19T00:58:25;10.43;;;4.38;;
39956;SDS011;48483;44.640;7.494;2023-09-19T01:00:51;7.85;;;3.10;;
39956;SDS011;48483;44.640;7.494;2023-09-19T01:03:19;5.40;;;2.67;;
39956;SDS011;48483;44.640;7.494;2023-09-19T01:05:46;9.82;;;4.63;;
39956;SDS011;48483;44.640;7.494;2023-09-19T01:08:13;8.38;;;3.60;;
39956;SDS011;48483;44.640;7.494;2023-09-19T01:10:42;5.57;;;3.03;;
39956;SDS011;48483;44.640;7.494;2023-09-19T01:13:21;5.50;;;2.95;;
39956;SDS011;48483;44.640;7.494;2023-09-19T01:15:55;6.15;;;3.67;;
39956;SDS011;48483;44.640;7.494;2023-09-19T01:18:30;7.15;;;3.90;;
39956;SDS011;48483;44.640;7.494;2023-09-19T01:21:08;6.60;;;3.38;;
39956;SDS011;48483;44.640;7.494;2023-09-19T01:23:48;9.05;;;4.00;;
39956;SDS011;48483;44.640;7.494;2023-09-19T01:26:43;6.60;;;4.13;;
39956;SDS011;48483;44.640;7.494;2023-09-19T01:29:36;8.55;;;4.07;;
39956;SDS011;48483;44.640;7.494;2023-09-19T01:32:08;6.95;;;3.72;;
39956;SDS011;48483;44.640;7.494;2023-09-19T01:34:45;8.25;;;3.92;;
39956;SDS011;48483;44.640;7.494;2023-09-19T01:37:16;6.28;;;4.43;;
39956;SDS011;48483;44.640;7.494;2023-09-19T01:42:28;9.05;;;4.07;;
39956;SDS011;48483;44.640;7.494;2023-09-19T01:45:11;8.60;;;4.90;;
39956;SDS011;48483;44.640;7.494;2023-09-19T01:47:42;6.25;;;4.18;;
39956;SDS011;48483;44.640;7.494;2023-09-19T01:50:17;9.00;;;4.65;;
39956;SDS011;48483;44.640;7.494;2023-09-19T01:52:54;5.13;;;3.53;;
39956;SDS011;48483;44.640;7.494;2023-09-19T01:55:26;8.75;;;4.40;;
39956;SDS011;48483;44.640;7.494;2023-09-19T01:57:58;10.45;;;4.03;;
39956;SDS011;48483;44.640;7.494;2023-09-19T02:00:30;7.40;;;4.35;;
39956;SDS011;48483;44.640;7.494;2023-09-19T02:03:03;11.48;;;4.40;;
39956;SDS011;48483;44.640;7.494;2023-09-19T02:05:30;7.78;;;4.82;;
39956;SDS011;48483;44.640;7.494;2023-09-19T02:07:59;8.02;;;4.22;;
39956;SDS011;48483;44.640;7.494;2023-09-19T02:10:26;11.80;;;5.20;;
39956;SDS011;48483;44.640;7.494;2023-09-19T02:12:53;9.93;;;5.20;;
39956;SDS011;48483;44.640;7.494;2023-09-19T02:15:20;8.82;;;4.47;;
39956;SDS011;48483;44.640;7.494;2023-09-19T02:17:48;6.68;;;4.05;;
39956;SDS011;48483;44.640;7.494;2023-09-19T02:20:16;6.15;;;3.72;;
39956;SDS011;48483;44.640;7.494;2023-09-19T02:22:43;10.02;;;4.00;;
39956;SDS011;48483;44.640;7.494;2023-09-19T02:25:10;6.70;;;4.38;;
39956;SDS011;48483;44.640;7.494;2023-09-19T02:27:37;7.72;;;3.67;;
39956;SDS011;48483;44.640;7.494;2023-09-19T02:30:04;8.63;;;3.47;;
39956;SDS011;48483;44.640;7.494;2023-09-19T02:32:32;5.60;;;3.42;;
39956;SDS011;48483;44.640;7.494;2023-09-19T02:35:01;7.13;;;3.65;;
39956;SDS011;48483;44.640;7.494;2023-09-19T02:37:32;7.32;;;3.80;;
39956;SDS011;48483;44.640;7.494;2023-09-19T02:39:59;7.57;;;4.07;;
39956;SDS011;48483;44.640;7.494;2023-09-19T02:42:26;8.68;;;4.20;;
39956;SDS011;48483;44.640;7.494;2023-09-19T02:44:53;9.23;;;3.92;;
39956;SDS011;48483;44.640;7.494;2023-09-19T02:47:20;5.05;;;3.38;;
39956;SDS011;48483;44.640;7.494;2023-09-19T02:49:47;6.25;;;3.70;;
39956;SDS011;48483;44.640;7.494;2023-09-19T02:52:14;6.30;;;3.80;;
39956;SDS011;48483;44.640;7.494;2023-09-19T02:54:42;7.63;;;4.32;;
39956;SDS011;48483;44.640;7.494;2023-09-19T02:57:11;6.30;;;3.80;;
39956;SDS011;48483;44.640;7.494;2023-09-19T02:59:40;5.55;;;3.58;;
39956;SDS011;48483;44.640;7.494;2023-09-19T03:02:08;5.90;;;3.30;;
39956;SDS011;48483;44.640;7.494;2023-09-19T03:04:35;6.55;;;3.55;;
39956;SDS011;48483;44.640;7.494;2023-09-19T03:07:02;5.20;;;3.58;;
39956;SDS011;48483;44.640;7.494;2023-09-19T03:09:31;8.10;;;3.63;;
39956;SDS011;48483;44.640;7.494;2023-09-19T03:12:00;7.97;;;4.28;;
39956;SDS011;48483;44.640;7.494;2023-09-19T03:14:27;7.38;;;3.75;;
39956;SDS011;48483;44.640;7.494;2023-09-19T03:17:02;6.53;;;3.80;;
39956;SDS011;48483;44.640;7.494;2023-09-19T03:19:31;7.43;;;3.92;;
39956;SDS011;48483;44.640;7.494;2023-09-19T03:21:59;8.48;;;4.00;;
39956;SDS011;48483;44.640;7.494;2023-09-19T03:24:26;4.25;;;3.22;;
39956;SDS011;48483;44.640;7.494;2023-09-19T03:26:53;10.07;;;4.40;;
39956;SDS011;48483;44.640;7.494;2023-09-19T03:29:21;8.55;;;5.20;;
39956;SDS011;48483;44.640;7.494;2023-09-19T03:31:48;4.72;;;3.67;;
39956;SDS011;48483;44.640;7.494;2023-09-19T03:34:15;6.13;;;4.55;;
39956;SDS011;48483;44.640;7.494;2023-09-19T03:36:43;6.05;;;4.00;;
39956;SDS011;48483;44.640;7.494;2023-09-19T03:39:10;5.50;;;3.97;;
39956;SDS011;48483;44.640;7.494;2023-09-19T03:41:37;10.88;;;4.68;;
39956;SDS011;48483;44.640;7.494;2023-09-19T03:44:04;7.65;;;4.43;;
39956;SDS011;48483;44.640;7.494;2023-09-19T03:46:33;8.10;;;4.15;;
39956;SDS011;48483;44.640;7.494;2023-09-19T03:49:02;7.15;;;4.32;;
39956;SDS011;48483;44.640;7.494;2023-09-19T03:51:29;10.40;;;4.63;;
39956;SDS011;48483;44.640;7.494;2023-09-19T03:53:56;8.57;;;4.00;;
39956;SDS011;48483;44.640;7.494;2023-09-19T03:56:22;5.97;;;3.90;;
39956;SDS011;48483;44.640;7.494;2023-09-19T03:58:49;9.80;;;3.95;;
39956;SDS011;48483;44.640;7.494;2023-09-19T04:01:16;6.93;;;3.67;;
39956;SDS011;48483;44.640;7.494;2023-09-19T04:03:46;5.75;;;3.33;;
39956;SDS011;48483;44.640;7.494;2023-09-19T04:06:13;10.07;;;4.82;;
39956;SDS011;48483;44.640;7.494;2023-09-19T04:08:40;5.53;;;3.40;;
39956;SDS011;48483;44.640;7.494;2023-09-19T04:11:07;6.07;;;3.28;;
39956;SDS011;48483;44.640;7.494;2023-09-19T04:13:34;6.82;;;4.20;;
39956;SDS011;48483;44.640;7.494;2023-09-19T04:16:01;5.88;;;3.55;;
39956;SDS011;48483;44.640;7.494;2023-09-19T04:18:29;8.63;;;5.13;;
39956;SDS011;48483;44.640;7.494;2023-09-19T04:21:01;6.70;;;3.85;;
39956;SDS011;48483;44.640;7.494;2023-09-19T04:23:30;7.30;;;4.60;;
39956;SDS011;48483;44.640;7.494;2023-09-19T04:25:57;11.27;;;4.95;;
39956;SDS011;48483;44.640;7.494;2023-09-19T04:28:23;11.50;;;5.63;;
39956;SDS011;48483;44.640;7.494;2023-09-19T04:30:50;6.43;;;4.05;;
39956;SDS011;48483;44.640;7.494;2023-09-19T04:33:17;6.32;;;4.05;;
39956;SDS011;48483;44.640;7.494;2023-09-19T04:35:44;8.88;;;3.95;;
39956;SDS011;48483;44.640;7.494;2023-09-19T04:38:12;6.40;;;4.40;;
39956;SDS011;48483;44.640;7.494;2023-09-19T04:40:40;7.05;;;4.55;;
39956;SDS011;48483;44.640;7.494;2023-09-19T04:43:07;7.60;;;4.45;;
39956;SDS011;48483;44.640;7.494;2023-09-19T04:45:34;10.65;;;4.95;;
39956;SDS011;48483;44.640;7.494;2023-09-19T04:48:01;10.98;;;5.57;;
39956;SDS011;48483;44.640;7.494;2023-09-19T04:50:28;7.07;;;4.35;;
39956;SDS011;48483;44.640;7.494;2023-09-19T04:52:55;5.55;;;3.63;;
39956;SDS011;48483;44.640;7.494;2023-09-19T04:55:24;6.18;;;4.03;;
39956;SDS011;48483;44.640;7.494;2023-09-19T04:57:52;7.65;;;4.00;;
39956;SDS011;48483;44.640;7.494;2023-09-19T05:00:20;8.07;;;3.90;;
39956;SDS011;48483;44.640;7.494;2023-09-19T05:02:50;5.68;;;3.88;;
39956;SDS011;48483;44.640;7.494;2023-09-19T05:05:17;9.55;;;4.00;;
39956;SDS011;48483;44.640;7.494;2023-09-19T05:07:45;8.85;;;4.57;;
39956;SDS011;48483;44.640;7.494;2023-09-19T05:10:12;10.15;;;4.70;;
39956;SDS011;48483;44.640;7.494;2023-09-19T05:12:40;8.02;;;4.90;;
39956;SDS011;48483;44.640;7.494;2023-09-19T05:15:08;9.63;;;6.47;;
39956;SDS011;48483;44.640;7.494;2023-09-19T05:17:35;8.20;;;5.22;;
39956;SDS011;48483;44.640;7.494;2023-09-19T05:20:02;7.78;;;3.85;;
39956;SDS011;48483;44.640;7.494;2023-09-19T05:22:41;10.63;;;4.47;;
39956;SDS011;48483;44.640;7.494;2023-09-19T05:25:09;7.90;;;4.38;;
39956;SDS011;48483;44.640;7.494;2023-09-19T05:27:36;8.05;;;4.45;;
39956;SDS011;48483;44.640;7.494;2023-09-19T05:30:05;9.02;;;5.32;;
39956;SDS011;48483;44.640;7.494;2023-09-19T05:32:32;11.18;;;4.78;;
39956;SDS011;48483;44.640;7.494;2023-09-19T05:34:59;8.70;;;5.93;;
39956;SDS011;48483;44.640;7.494;2023-09-19T05:37:26;9.15;;;6.47;;
39956;SDS011;48483;44.640;7.494;2023-09-19T05:39:52;11.27;;;7.75;;
39956;SDS011;48483;44.640;7.494;2023-09-19T05:42:23;15.48;;;7.57;;
39956;SDS011;48483;44.640;7.494;2023-09-19T05:44:50;13.05;;;8.60;;
39956;SDS011;48483;44.640;7.494;2023-09-19T05:47:18;17.10;;;8.45;;
39956;SDS011;48483;44.640;7.494;2023-09-19T05:49:44;15.82;;;9.10;;
39956;SDS011;48483;44.640;7.494;2023-09-19T05:52:11;13.40;;;7.82;;
39956;SDS011;48483;44.640;7.494;2023-09-19T05:54:38;10.98;;;5.80;;
39956;SDS011;48483;44.640;7.494;2023-09-19T05:57:05;10.05;;;6.43;;
39956;SDS011;48483;44.640;7.494;2023-09-19T05:59:31;8.75;;;6.85;;
39956;SDS011;48483;44.640;7.494;2023-09-19T06:01:59;11.80;;;7.68;;
39956;SDS011;48483;44.640;7.494;2023-09-19T06:04:27;16.23;;;8.10;;
39956;SDS011;48483;44.640;7.494;2023-09-19T06:06:56;14.68;;;9.32;;
39956;SDS011;48483;44.640;7.494;2023-09-19T06:09:24;17.73;;;9.80;;
39956;SDS011;48483;44.640;7.494;2023-09-19T06:11:51;17.95;;;10.45;;
39956;SDS011;48483;44.640;7.494;2023-09-19T06:14:18;15.13;;;10.07;;
39956;SDS011;48483;44.640;7.494;2023-09-19T06:16:45;18.70;;;10.15;;
39956;SDS011;48483;44.640;7.494;2023-09-19T06:19:12;15.30;;;9.07;;
39956;SDS011;48483;44.640;7.494;2023-09-19T06:21:40;15.45;;;10.02;;
39956;SDS011;48483;44.640;7.494;2023-09-19T06:24:08;15.27;;;9.57;;
39956;SDS011;48483;44.640;7.494;2023-09-19T06:26:34;15.02;;;10.23;;
39956;SDS011;48483;44.640;7.494;2023-09-19T06:29:01;14.75;;;9.30;;
39956;SDS011;48483;44.640;7.494;2023-09-19T06:31:32;18.63;;;10.40;;
39956;SDS011;48483;44.640;7.494;2023-09-19T06:33:59;15.63;;;9.82;;
39956;SDS011;48483;44.640;7.494;2023-09-19T06:36:26;15.85;;;9.15;;
39956;SDS011;48483;44.640;7.494;2023-09-19T06:38:54;16.40;;;9.40;;
39956;SDS011;48483;44.640;7.494;2023-09-19T06:41:21;13.98;;;9.73;;
39956;SDS011;48483;44.640;7.494;2023-09-19T06:43:50;19.80;;;9.98;;
39956;SDS011;48483;44.640;7.494;2023-09-19T06:46:19;14.32;;;9.98;;
39956;SDS011;48483;44.640;7.494;2023-09-19T06:48:46;12.48;;;8.00;;
39956;SDS011;48483;44.640;7.494;2023-09-19T06:51:14;11.30;;;7.47;;
39956;SDS011;48483;44.640;7.494;2023-09-19T06:53:41;12.85;;;8.70;;
39956;SDS011;48483;44.640;7.494;2023-09-19T06:56:10;12.35;;;9.23;;
39956;SDS011;48483;44.640;7.494;2023-09-19T06:58:36;12.32;;;8.75;;
39956;SDS011;48483;44.640;7.494;2023-09-19T07:01:04;15.00;;;10.68;;
39956;SDS011;48483;44.640;7.494;2023-09-19T07:03:30;17.10;;;10.73;;
39956;SDS011;48483;44.640;7.494;2023-09-19T07:05:59;21.15;;;12.15;;
39956;SDS011;48483;44.640;7.494;2023-09-19T07:08:26;22.60;;;10.85;;
39956;SDS011;48483;44.640;7.494;2023-09-19T07:10:52;10.65;;;7.95;;
39956;SDS011;48483;44.640;7.494;2023-09-19T07:13:21;12.05;;;6.97;;
39956;SDS011;48483;44.640;7.494;2023-09-19T07:15:48;14.43;;;6.28;;
39956;SDS011;48483;44.640;7.494;2023-09-19T07:18:16;10.40;;;5.03;;
39956;SDS011;48483;44.640;7.494;2023-09-19T07:20:43;11.10;;;5.68;;
39956;SDS011;48483;44.640;7.494;2023-09-19T07:23:16;10.35;;;5.75;;
39956;SDS011;48483;44.640;7.494;2023-09-19T07:25:44;11.05;;;6.78;;
39956;SDS011;48483;44.640;7.494;2023-09-19T07:28:12;11.30;;;6.22;;
39956;SDS011;48483;44.640;7.494;2023-09-19T07:30:40;13.50;;;7.32;;
39956;SDS011;48483;44.640;7.494;2023-09-19T07:33:10;16.75;;;10.73;;
39956;SDS011;48483;44.640;7.494;2023-09-19T07:35:40;20.98;;;14.48;;
39956;SDS011;48483;44.640;7.494;2023-09-19T07:38:12;23.05;;;13.98;;
39956;SDS011;48483;44.640;7.494;2023-09-19T07:40:38;19.00;;;11.80;;
39956;SDS011;48483;44.640;7.494;2023-09-19T07:43:05;15.63;;;10.45;;
39956;SDS011;48483;44.640;7.494;2023-09-19T07:45:32;16.13;;;9.82;;
39956;SDS011;48483;44.640;7.494;2023-09-19T07:48:00;16.20;;;9.15;;
39956;SDS011;48483;44.640;7.494;2023-09-19T07:52:56;10.93;;;6.40;;
39956;SDS011;48483;44.640;7.494;2023-09-19T07:55:23;9.02;;;5.97;;
39956;SDS011;48483;44.640;7.494;2023-09-19T07:57:51;17.35;;;7.97;;
39956;SDS011;48483;44.640;7.494;2023-09-19T08:00:18;11.02;;;8.18;;
39956;SDS011;48483;44.640;7.494;2023-09-19T08:02:45;14.20;;;9.43;;
39956;SDS011;48483;44.640;7.494;2023-09-19T08:05:14;14.07;;;8.98;;
39956;SDS011;48483;44.640;7.494;2023-09-19T08:07:42;16.88;;;10.38;;
39956;SDS011;48483;44.640;7.494;2023-09-19T08:10:10;18.67;;;12.52;;
39956;SDS011;48483;44.640;7.494;2023-09-19T08:12:47;24.77;;;12.07;;
39956;SDS011;48483;44.640;7.494;2023-09-19T08:15:15;21.08;;;12.68;;
39956;SDS011;48483;44.640;7.494;2023-09-19T08:17:42;20.50;;;13.82;;
39956;SDS011;48483;44.640;7.494;2023-09-19T08:20:09;26.45;;;13.68;;
39956;SDS011;48483;44.640;7.494;2023-09-19T08:22:46;22.58;;;13.50;;
39956;SDS011;48483;44.640;7.494;2023-09-19T08:25:14;23.45;;;14.88;;
39956;SDS011;48483;44.640;7.494;2023-09-19T08:27:43;19.77;;;15.68;;
39956;SDS011;48483;44.640;7.494;2023-09-19T08:30:14;25.77;;;17.20;;
39956;SDS011;48483;44.640;7.494;2023-09-19T08:32:41;19.05;;;12.70;;
39956;SDS011;48483;44.640;7.494;2023-09-19T08:35:12;19.38;;;13.05;;
39956;SDS011;48483;44.640;7.494;2023-09-19T08:37:39;18.30;;;13.23;;
39956;SDS011;48483;44.640;7.494;2023-09-19T08:40:07;19.88;;;12.90;;
39956;SDS011;48483;44.640;7.494;2023-09-19T08:42:47;18.97;;;13.17;;
39956;SDS011;48483;44.640;7.494;2023-09-19T08:45:16;19.55;;;12.13;;
39956;SDS011;48483;44.640;7.494;2023-09-19T08:47:45;20.08;;;12.32;;
39956;SDS011;48483;44.640;7.494;2023-09-19T08:50:18;19.45;;;13.02;;
39956;SDS011;48483;44.640;7.494;2023-09-19T08:52:49;23.10;;;12.80;;
39956;SDS011;48483;44.640;7.494;2023-09-19T08:55:23;16.83;;;12.80;;
39956;SDS011;48483;44.640;7.494;2023-09-19T08:57:55;17.00;;;12.02;;
39956;SDS011;48483;44.640;7.494;2023-09-19T09:00:26;20.17;;;11.98;;
39956;SDS011;48483;44.640;7.494;2023-09-19T09:02:54;18.73;;;12.48;;
39956;SDS011;48483;44.640;7.494;2023-09-19T09:05:25;19.63;;;13.10;;
39956;SDS011;48483;44.640;7.494;2023-09-19T09:07:53;15.50;;;12.18;;
39956;SDS011;48483;44.640;7.494;2023-09-19T09:10:23;21.70;;;12.73;;
39956;SDS011;48483;44.640;7.494;2023-09-19T09:12:50;13.93;;;10.27;;
39956;SDS011;48483;44.640;7.494;2023-09-19T09:15:21;19.15;;;12.52;;
39956;SDS011;48483;44.640;7.494;2023-09-19T09:17:49;21.42;;;14.98;;
39956;SDS011;48483;44.640;7.494;2023-09-19T09:20:16;19.67;;;13.27;;
39956;SDS011;48483;44.640;7.494;2023-09-19T09:22:51;20.15;;;13.43;;
39956;SDS011;48483;44.640;7.494;2023-09-19T09:25:22;21.60;;;15.70;;
39956;SDS011;48483;44.640;7.494;2023-09-19T09:28:10;23.13;;;13.73;;
39956;SDS011;48483;44.640;7.494;2023-09-19T09:30:37;19.42;;;14.02;;
39956;SDS011;48483;44.640;7.494;2023-09-19T09:33:07;21.58;;;15.05;;
39956;SDS011;48483;44.640;7.494;2023-09-19T09:35:36;20.20;;;14.80;;
39956;SDS011;48483;44.640;7.494;2023-09-19T09:38:13;22.02;;;14.40;;
39956;SDS011;48483;44.640;7.494;2023-09-19T09:40:47;21.27;;;15.90;;
39956;SDS011;48483;44.640;7.494;2023-09-19T09:43:24;17.60;;;13.52;;
39956;SDS011;48483;44.640;7.494;2023-09-19T09:46:09;19.80;;;14.88;;
39956;SDS011;48483;44.640;7.494;2023-09-19T09:48:55;21.13;;;14.88;;
39956;SDS011;48483;44.640;7.494;2023-09-19T09:51:44;16.77;;;12.88;;
39956;SDS011;48483;44.640;7.494;2023-09-19T09:54:23;16.10;;;12.10;;
39956;SDS011;48483;44.640;7.494;2023-09-19T09:56:58;18.92;;;10.40;;
39956;SDS011;48483;44.640;7.494;2023-09-19T10:02:14;21.15;;;13.50;;
39956;SDS011;48483;44.640;7.494;2023-09-19T10:04:46;20.98;;;14.57;;
39956;SDS011;48483;44.640;7.494;2023-09-19T10:07:36;18.15;;;13.60;;
39956;SDS011;48483;44.640;7.494;2023-09-19T10:10:08;20.77;;;14.38;;
39956;SDS011;48483;44.640;7.494;2023-09-19T10:12:48;17.33;;;12.98;;
39956;SDS011;48483;44.640;7.494;2023-09-19T10:15:17;20.85;;;12.95;;
39956;SDS011;48483;44.640;7.494;2023-09-19T10:17:50;19.77;;;13.50;;
39956;SDS011;48483;44.640;7.494;2023-09-19T10:20:22;20.02;;;13.40;;
39956;SDS011;48483;44.640;7.494;2023-09-19T10:23:05;16.60;;;12.95;;
39956;SDS011;48483;44.640;7.494;2023-09-19T10:25:38;16.10;;;11.52;;
39956;SDS011;48483;44.640;7.494;2023-09-19T10:28:13;17.60;;;11.38;;
39956;SDS011;48483;44.640;7.494;2023-09-19T10:30:42;19.30;;;11.93;;
39956;SDS011;48483;44.640;7.494;2023-09-19T10:33:11;16.52;;;12.02;;
39956;SDS011;48483;44.640;7.494;2023-09-19T10:35:42;15.63;;;11.68;;
39956;SDS011;48483;44.640;7.494;2023-09-19T10:38:10;16.88;;;11.70;;
39956;SDS011;48483;44.640;7.494;2023-09-19T10:40:38;21.38;;;13.48;;
39956;SDS011;48483;44.640;7.494;2023-09-19T10:43:15;17.40;;;11.27;;
39956;SDS011;48483;44.640;7.494;2023-09-19T10:45:47;12.98;;;9.90;;
39956;SDS011;48483;44.640;7.494;2023-09-19T10:48:21;11.75;;;8.45;;
39956;SDS011;48483;44.640;7.494;2023-09-19T10:50:52;12.85;;;8.57;;
39956;SDS011;48483;44.640;7.494;2023-09-19T10:53:26;11.30;;;6.88;;
39956;SDS011;48483;44.640;7.494;2023-09-19T10:55:55;10.07;;;7.50;;
39956;SDS011;48483;44.640;7.494;2023-09-19T10:58:27;10.20;;;7.10;;
39956;SDS011;48483;44.640;7.494;2023-09-19T11:00:56;10.30;;;6.55;;
39956;SDS011;48483;44.640;7.494;2023-09-19T11:03:31;8.23;;;5.25;;
39956;SDS011;48483;44.640;7.494;2023-09-19T11:06:02;7.82;;;5.85;;
39956;SDS011;48483;44.640;7.494;2023-09-19T11:08:31;19.10;;;7.68;;
39956;SDS011;48483;44.640;7.494;2023-09-19T11:14:32;6.13;;;3.75;;
39956;SDS011;48483;44.640;7.494;2023-09-19T11:23:18;6.20;;;3.88;;
39956;SDS011;48483;44.640;7.494;2023-09-19T11:25:49;7.20;;;4.80;;
39956;SDS011;48483;44.640;7.494;2023-09-19T11:28:27;9.98;;;4.30;;
39956;SDS011;48483;44.640;7.494;2023-09-19T11:30:58;6.35;;;4.05;;
39956;SDS011;48483;44.640;7.494;2023-09-19T11:33:26;6.80;;;4.00;;
39956;SDS011;48483;44.640;7.494;2023-09-19T11:36:02;6.35;;;3.83;;
39956;SDS011;48483;44.640;7.494;2023-09-19T11:41:37;9.80;;;3.47;;
39956;SDS011;48483;44.640;7.494;2023-09-19T11:47:02;4.82;;;3.10;;
39956;SDS011;48483;44.640;7.494;2023-09-19T11:49:30;7.63;;;3.57;;
39956;SDS011;48483;44.640;7.494;2023-09-19T11:51:59;4.65;;;3.15;;
39956;SDS011;48483;44.640;7.494;2023-09-19T11:54:30;7.22;;;3.20;;
39956;SDS011;48483;44.640;7.494;2023-09-19T11:56:59;6.90;;;2.97;;
39956;SDS011;48483;44.640;7.494;2023-09-19T11:59:27;7.38;;;4.45;;
39956;SDS011;48483;44.640;7.494;2023-09-19T12:02:00;6.68;;;3.17;;
39956;SDS011;48483;44.640;7.494;2023-09-19T12:04:34;3.63;;;2.63;;
39956;SDS011;48483;44.640;7.494;2023-09-19T12:07:05;3.35;;;2.40;;
39956;SDS011;48483;44.640;7.494;2023-09-19T12:09:42;4.20;;;2.47;;
39956;SDS011;48483;44.640;7.494;2023-09-19T12:12:10;5.97;;;2.50;;
39956;SDS011;48483;44.640;7.494;2023-09-19T12:14:47;3.20;;;2.40;;
39956;SDS011;48483;44.640;7.494;2023-09-19T12:17:15;7.32;;;2.60;;
39956;SDS011;48483;44.640;7.494;2023-09-19T12:19:49;5.45;;;2.08;;
39956;SDS011;48483;44.640;7.494;2023-09-19T12:22:17;4.75;;;2.53;;
39956;SDS011;48483;44.640;7.494;2023-09-19T12:24:46;4.82;;;2.42;;
39956;SDS011;48483;44.640;7.494;2023-09-19T12:27:14;4.10;;;3.10;;
39956;SDS011;48483;44.640;7.494;2023-09-19T12:29:42;3.92;;;2.22;;
39956;SDS011;48483;44.640;7.494;2023-09-19T12:32:10;4.95;;;1.90;;
39956;SDS011;48483;44.640;7.494;2023-09-19T12:34:38;4.28;;;2.38;;
39956;SDS011;48483;44.640;7.494;2023-09-19T12:37:08;4.63;;;2.35;;
39956;SDS011;48483;44.640;7.494;2023-09-19T12:39:42;2.67;;;2.20;;
39956;SDS011;48483;44.640;7.494;2023-09-19T12:42:14;4.88;;;2.78;;
39956;SDS011;48483;44.640;7.494;2023-09-19T12:44:42;5.32;;;2.83;;
39956;SDS011;48483;44.640;7.494;2023-09-19T12:47:11;7.80;;;2.40;;
39956;SDS011;48483;44.640;7.494;2023-09-19T12:52:55;4.47;;;2.35;;
39956;SDS011;48483;44.640;7.494;2023-09-19T12:55:26;4.15;;;2.10;;
39956;SDS011;48483;44.640;7.494;2023-09-19T12:57:55;3.93;;;2.13;;
39956;SDS011;48483;44.640;7.494;2023-09-19T13:00:31;4.68;;;2.80;;
39956;SDS011;48483;44.640;7.494;2023-09-19T13:03:13;11.20;;;4.57;;
39956;SDS011;48483;44.640;7.494;2023-09-19T13:06:02;4.97;;;2.38;;
39956;SDS011;48483;44.640;7.494;2023-09-19T13:08:30;5.65;;;2.20;;
39956;SDS011;48483;44.640;7.494;2023-09-19T13:11:05;4.32;;;2.05;;
39956;SDS011;48483;44.640;7.494;2023-09-19T13:13:36;4.82;;;2.13;;
39956;SDS011;48483;44.640;7.494;2023-09-19T13:16:03;5.75;;;2.13;;
39956;SDS011;48483;44.640;7.494;2023-09-19T13:18:47;3.65;;;1.98;;
39956;SDS011;48483;44.640;7.494;2023-09-19T13:21:28;3.97;;;2.25;;
39956;SDS011;48483;44.640;7.494;2023-09-19T13:26:47;2.65;;;1.88;;
39956;SDS011;48483;44.640;7.494;2023-09-19T13:29:13;2.92;;;1.98;;
39956;SDS011;48483;44.640;7.494;2023-09-19T13:31:45;3.42;;;2.65;;
39956;SDS011;48483;44.640;7.494;2023-09-19T13:34:12;3.90;;;1.95;;
39956;SDS011;48483;44.640;7.494;2023-09-19T13:36:43;7.03;;;2.28;;
39956;SDS011;48483;44.640;7.494;2023-09-19T13:39:10;6.25;;;2.50;;
39956;SDS011;48483;44.640;7.494;2023-09-19T13:41:39;5.75;;;2.22;;
39956;SDS011;48483;44.640;7.494;2023-09-19T13:44:05;4.22;;;2.10;;
39956;SDS011;48483;44.640;7.494;2023-09-19T13:46:32;4.20;;;2.30;;
39956;SDS011;48483;44.640;7.494;2023-09-19T13:49:01;3.47;;;2.13;;
39956;SDS011;48483;44.640;7.494;2023-09-19T13:51:30;5.68;;;2.30;;
39956;SDS011;48483;44.640;7.494;2023-09-19T13:53:58;4.97;;;2.22;;
39956;SDS011;48483;44.640;7.494;2023-09-19T13:56:28;5.30;;;2.40;;
39956;SDS011;48483;44.640;7.494;2023-09-19T13:58:56;6.45;;;2.50;;
39956;SDS011;48483;44.640;7.494;2023-09-19T14:01:22;3.85;;;2.00;;
39956;SDS011;48483;44.640;7.494;2023-09-19T14:03:49;5.20;;;2.40;;
39956;SDS011;48483;44.640;7.494;2023-09-19T14:06:17;5.35;;;2.63;;
39956;SDS011;48483;44.640;7.494;2023-09-19T14:08:43;5.50;;;2.40;;
39956;SDS011;48483;44.640;7.494;2023-09-19T14:11:17;4.20;;;2.60;;
39956;SDS011;48483;44.640;7.494;2023-09-19T14:13:43;5.30;;;2.38;;
39956;SDS011;48483;44.640;7.494;2023-09-19T14:16:13;6.38;;;2.58;;
39956;SDS011;48483;44.640;7.494;2023-09-19T14:18:39;5.07;;;2.30;;
39956;SDS011;48483;44.640;7.494;2023-09-19T14:21:06;4.57;;;2.33;;
39956;SDS011;48483;44.640;7.494;2023-09-19T14:23:37;3.47;;;2.35;;
39956;SDS011;48483;44.640;7.494;2023-09-19T14:26:04;4.45;;;2.65;;
39956;SDS011;48483;44.640;7.494;2023-09-19T14:28:32;5.40;;;3.58;;
39956;SDS011;48483;44.640;7.494;2023-09-19T14:31:03;4.85;;;2.50;;
39956;SDS011;48483;44.640;7.494;2023-09-19T14:33:31;5.68;;;2.72;;
39956;SDS011;48483;44.640;7.494;2023-09-19T14:36:00;5.03;;;2.90;;
39956;SDS011;48483;44.640;7.494;2023-09-19T14:38:29;6.82;;;2.97;;
39956;SDS011;48483;44.640;7.494;2023-09-19T14:40:59;9.20;;;3.20;;
39956;SDS011;48483;44.640;7.494;2023-09-19T14:43:27;4.28;;;2.58;;
39956;SDS011;48483;44.640;7.494;2023-09-19T14:45:57;5.05;;;2.72;;
39956;SDS011;48483;44.640;7.494;2023-09-19T14:48:28;3.95;;;3.17;;
39956;SDS011;48483;44.640;7.494;2023-09-19T14:50:55;4.03;;;2.90;;
39956;SDS011;48483;44.640;7.494;2023-09-19T14:53:28;5.00;;;2.78;;
39956;SDS011;48483;44.640;7.494;2023-09-19T14:55:55;5.43;;;2.60;;
39956;SDS011;48483;44.640;7.494;2023-09-19T14:58:22;4.15;;;2.85;;
39956;SDS011;48483;44.640;7.494;2023-09-19T15:00:48;6.60;;;3.13;;
39956;SDS011;48483;44.640;7.494;2023-09-19T15:03:18;4.82;;;2.53;;
39956;SDS011;48483;44.640;7.494;2023-09-19T15:05:45;6.43;;;2.60;;
39956;SDS011;48483;44.640;7.494;2023-09-19T15:08:12;4.40;;;2.40;;
39956;SDS011;48483;44.640;7.494;2023-09-19T15:10:38;4.28;;;2.50;;
39956;SDS011;48483;44.640;7.494;2023-09-19T15:13:05;4.43;;;2.30;;
39956;SDS011;48483;44.640;7.494;2023-09-19T15:15:32;3.47;;;2.40;;
39956;SDS011;48483;44.640;7.494;2023-09-19T15:17:58;4.60;;;2.45;;
39956;SDS011;48483;44.640;7.494;2023-09-19T15:20:27;3.42;;;2.00;;
39956;SDS011;48483;44.640;7.494;2023-09-19T15:22:53;4.03;;;2.17;;
39956;SDS011;48483;44.640;7.494;2023-09-19T15:25:20;3.13;;;2.13;;